Terminal Aerodrome Forecast
Issued by NWS Wilmington, OH

Current Version | Previous Version | Text Only | Print | Product List | Glossary Off
Versions: 1 2 3 4 5 6 7 8 9 10 11 12 13 14 15

000
FTUS41 KILN 271500 AAA
TAFILN
TAF AMD
KILN 271505Z 2715/2812 33006KT P6SM SCT040 SCT100
     FM271800 35007KT P6SM VCTS BKN060CB
     FM272200 01005KT P6SM BKN090
     FM280000 04005KT P6SM SCT100 BKN250
     FM280800 05004KT 5SM BR BKN250=

USA.gov is the U.S. government's official web portal to all federal, state and local government web resources and services.